createdAt,value
2018-09-10T00:00:23.197Z,6.50
2018-09-10T00:02:51.274Z,5.07
2018-09-10T00:05:19.336Z,3.77
2018-09-10T00:07:47.446Z,3.53
2018-09-10T00:10:15.521Z,6.70
2018-09-10T00:12:43.795Z,3.57
2018-09-10T00:15:11.874Z,2.70
2018-09-10T00:17:39.962Z,4.77
2018-09-10T00:20:08.056Z,6.07
2018-09-10T00:22:36.206Z,7.17
2018-09-10T00:25:04.837Z,3.67
2018-09-10T00:27:33.166Z,2.83
2018-09-10T00:30:01.237Z,4.10
2018-09-10T00:32:29.466Z,5.07
2018-09-10T00:34:57.559Z,4.00
2018-09-10T00:37:25.647Z,3.40
2018-09-10T00:39:53.711Z,4.97
2018-09-10T00:42:21.824Z,3.37
2018-09-10T00:44:49.893Z,3.47
2018-09-10T00:47:18.000Z,4.20
2018-09-10T00:49:46.065Z,4.13
2018-09-10T00:52:14.154Z,3.53
2018-09-10T00:54:42.214Z,3.70
2018-09-10T00:57:10.307Z,5.00
2018-09-10T00:59:38.388Z,5.63
2018-09-10T01:02:06.485Z,3.37
2018-09-10T01:04:34.569Z,2.97
2018-09-10T01:07:02.646Z,2.87
2018-09-10T01:09:30.740Z,3.80
2018-09-10T01:11:58.822Z,3.73
2018-09-10T01:14:26.902Z,4.30
2018-09-10T01:16:54.981Z,3.87
2018-09-10T01:19:23.087Z,4.10
2018-09-10T01:21:51.202Z,3.30
2018-09-10T01:24:19.283Z,3.63
2018-09-10T01:26:47.383Z,4.57
2018-09-10T01:29:15.461Z,5.80
2018-09-10T01:31:43.558Z,6.80
2018-09-10T01:34:29.226Z,5.17
2018-09-10T01:36:57.313Z,4.27
2018-09-10T01:39:25.388Z,4.57
2018-09-10T01:41:53.478Z,10.27
2018-09-10T01:44:21.569Z,4.80
2018-09-10T01:46:49.643Z,7.17
2018-09-10T01:49:17.743Z,5.83
2018-09-10T01:51:45.818Z,4.60
2018-09-10T01:54:13.912Z,5.43
2018-09-10T01:56:41.996Z,9.07
2018-09-10T01:59:10.083Z,11.90
2018-09-10T02:01:38.180Z,5.07
2018-09-10T02:04:06.247Z,3.83
2018-09-10T02:06:34.337Z,3.67
2018-09-10T02:09:02.414Z,3.87
2018-09-10T02:11:30.501Z,6.10
2018-09-10T02:13:58.571Z,5.20
2018-09-10T02:16:26.665Z,8.70
2018-09-10T02:18:54.726Z,7.10
2018-09-10T02:21:22.812Z,6.33
2018-09-10T02:23:50.889Z,8.77
2018-09-10T02:26:18.980Z,4.93
2018-09-10T02:28:47.061Z,3.53
2018-09-10T02:31:15.145Z,4.37
2018-09-10T02:33:43.254Z,5.30
2018-09-10T02:36:11.338Z,6.00
2018-09-10T02:38:39.440Z,3.20
2018-09-10T02:41:07.502Z,4.37
2018-09-10T02:43:35.586Z,5.37
2018-09-10T02:46:03.690Z,4.00
2018-09-10T02:48:31.755Z,4.10
2018-09-10T02:50:59.834Z,4.57
2018-09-10T02:53:27.934Z,3.97
2018-09-10T02:55:56.072Z,3.70
2018-09-10T02:58:24.177Z,7.73
2018-09-10T03:00:52.271Z,4.57
2018-09-10T03:03:20.368Z,6.73
2018-09-10T03:05:48.445Z,3.47
2018-09-10T03:08:16.823Z,5.17
2018-09-10T03:10:44.986Z,5.73
2018-09-10T03:13:13.084Z,6.20
2018-09-10T03:15:41.261Z,10.03
2018-09-10T03:18:09.349Z,9.40
2018-09-10T03:20:37.432Z,7.97
2018-09-10T03:23:05.769Z,8.13
2018-09-10T03:25:33.849Z,9.05
2018-09-10T03:28:01.927Z,7.80
2018-09-10T03:30:30.018Z,5.10
2018-09-10T03:32:58.109Z,6.60
2018-09-10T03:35:26.183Z,5.33
2018-09-10T03:37:54.297Z,5.43
2018-09-10T03:40:22.392Z,7.53
2018-09-10T03:42:50.471Z,3.80
2018-09-10T03:45:18.572Z,5.30
2018-09-10T03:47:46.653Z,3.03
2018-09-10T03:50:14.755Z,3.43
2018-09-10T03:52:42.835Z,5.17
2018-09-10T03:55:11.000Z,3.40
2018-09-10T03:57:39.065Z,3.87
2018-09-10T04:00:07.196Z,4.10
2018-09-10T04:02:35.297Z,4.00
2018-09-10T04:05:03.374Z,6.10
2018-09-10T04:07:31.475Z,6.63
2018-09-10T04:09:59.551Z,7.50
2018-09-10T04:12:27.639Z,4.93
2018-09-10T04:14:55.776Z,13.70
2018-09-10T04:17:23.860Z,10.55
2018-09-10T04:19:56.829Z,6.30
2018-09-10T04:24:53.013Z,8.90
2018-09-10T04:27:21.105Z,5.77
2018-09-10T04:29:49.202Z,4.57
2018-09-10T04:32:17.287Z,6.73
2018-09-10T04:34:45.394Z,8.13
2018-09-10T04:37:13.511Z,10.03
2018-09-10T04:39:41.591Z,8.87
2018-09-10T04:42:09.705Z,7.67
2018-09-10T04:44:37.804Z,10.40
2018-09-10T04:47:05.905Z,9.10
2018-09-10T04:49:34.029Z,5.17
2018-09-10T04:52:02.096Z,7.80
2018-09-10T04:54:30.201Z,8.57
2018-09-10T04:56:58.276Z,5.63
2018-09-10T04:59:26.396Z,7.67
2018-09-10T05:01:54.718Z,6.13
2018-09-10T05:04:22.826Z,4.57
2018-09-10T05:06:50.924Z,5.83
2018-09-10T05:09:19.026Z,5.90
2018-09-10T05:11:48.334Z,8.90
2018-09-10T05:14:16.459Z,6.50
2018-09-10T05:16:44.586Z,8.23
2018-09-10T05:19:12.686Z,6.27
2018-09-10T05:21:40.799Z,9.37
2018-09-10T05:24:08.911Z,9.83
2018-09-10T05:26:37.054Z,7.73
2018-09-10T05:29:05.175Z,6.30
2018-09-10T05:31:33.293Z,9.17
2018-09-10T05:34:01.390Z,7.13
2018-09-10T05:36:29.483Z,9.10
2018-09-10T05:38:57.874Z,30.03
2018-09-10T05:41:25.993Z,12.80
2018-09-10T05:43:54.602Z,8.90
2018-09-10T05:46:22.699Z,18.53
2018-09-10T05:48:50.808Z,13.37
2018-09-10T05:51:18.886Z,9.97
2018-09-10T05:53:47.015Z,11.07
2018-09-10T05:56:15.130Z,14.18
2018-09-10T05:58:43.239Z,21.47
2018-09-10T06:01:11.339Z,13.97
2018-09-10T06:03:39.632Z,10.97
2018-09-10T06:06:08.542Z,13.70
2018-09-10T06:08:36.674Z,18.87
2018-09-10T06:11:05.049Z,16.20
2018-09-10T06:13:34.012Z,12.33
2018-09-10T06:16:02.140Z,14.00
2018-09-10T06:18:30.241Z,8.87
2018-09-10T06:20:58.372Z,7.23
2018-09-10T06:23:26.475Z,7.50
2018-09-10T06:25:54.594Z,7.33
2018-09-10T06:28:22.674Z,11.33
2018-09-10T06:30:50.755Z,9.37
2018-09-10T06:33:20.411Z,7.13
2018-09-10T06:35:48.503Z,7.10
2018-09-10T06:38:16.639Z,11.50
2018-09-10T06:40:44.722Z,10.67
2018-09-10T06:43:12.798Z,15.47
2018-09-10T06:45:40.900Z,13.37
2018-09-10T06:48:08.992Z,6.57
2018-09-10T06:50:37.074Z,8.17
2018-09-10T06:53:05.276Z,12.77
2018-09-10T06:55:33.378Z,11.30
2018-09-10T06:58:01.454Z,11.17
2018-09-10T07:00:29.567Z,14.13
2018-09-10T07:02:57.657Z,12.17
2018-09-10T07:05:25.785Z,7.77
2018-09-10T07:07:53.851Z,7.80
2018-09-10T07:10:21.949Z,7.20
2018-09-10T07:12:50.100Z,6.50
2018-09-10T07:15:18.139Z,11.33
2018-09-10T07:17:46.332Z,9.13
2018-09-10T07:20:14.403Z,10.07
2018-09-10T07:22:43.304Z,8.10
2018-09-10T07:25:11.453Z,8.53
2018-09-10T07:27:39.601Z,20.77
2018-09-10T07:30:07.743Z,7.10
2018-09-10T07:32:36.309Z,7.70
2018-09-10T07:35:04.644Z,15.23
2018-09-10T07:37:32.727Z,6.50
2018-09-10T07:40:01.106Z,9.53
2018-09-10T07:42:29.257Z,11.53
2018-09-10T07:44:57.336Z,9.67
2018-09-10T07:47:25.428Z,6.73
2018-09-10T07:49:53.576Z,7.87
2018-09-10T07:52:21.658Z,13.47
2018-09-10T07:54:49.846Z,10.37
2018-09-10T07:57:17.970Z,8.77
2018-09-10T07:59:46.120Z,8.50
2018-09-10T08:02:14.198Z,11.53
2018-09-10T08:04:42.248Z,8.87
2018-09-10T08:07:10.461Z,6.47
2018-09-10T08:09:38.573Z,9.93
2018-09-10T08:12:07.423Z,9.13
2018-09-10T08:14:35.506Z,9.13
2018-09-10T08:17:03.588Z,16.03
2018-09-10T08:19:31.668Z,12.23
2018-09-10T08:22:00.026Z,15.53
2018-09-10T08:24:28.207Z,7.30
2018-09-10T08:26:56.240Z,20.50
2018-09-10T08:29:24.343Z,10.03
2018-09-10T08:31:53.404Z,8.50
2018-09-10T08:34:21.754Z,13.23
2018-09-10T08:36:50.429Z,7.43
2018-09-10T08:39:18.501Z,8.70
2018-09-10T08:41:46.589Z,24.27
2018-09-10T08:44:14.657Z,18.37
2018-09-10T08:46:42.742Z,9.97
2018-09-10T08:49:10.816Z,3.53
2018-09-10T08:51:38.921Z,5.40
2018-09-10T08:54:07.036Z,7.10
2018-09-10T08:56:35.077Z,9.20
2018-09-10T08:59:03.166Z,14.05
2018-09-10T09:01:31.302Z,8.87
2018-09-10T09:03:59.385Z,9.67
2018-09-10T09:06:27.557Z,7.93
2018-09-10T09:08:56.335Z,8.73
2018-09-10T09:11:24.413Z,11.08
2018-09-10T09:13:52.512Z,11.30
2018-09-10T09:16:20.636Z,12.73
2018-09-10T09:18:48.705Z,7.20
2018-09-10T09:21:16.792Z,7.43
2018-09-10T09:23:44.854Z,8.60
2018-09-10T09:26:12.938Z,5.80
2018-09-10T09:28:41.004Z,8.37
2018-09-10T09:31:09.121Z,4.67
2018-09-10T09:33:37.191Z,10.17
2018-09-10T09:36:23.356Z,12.40
2018-09-10T09:39:08.721Z,42.90
2018-09-10T09:41:54.441Z,31.30
2018-09-10T09:44:40.451Z,11.35
2018-09-10T09:47:08.545Z,16.03
2018-09-10T09:49:36.746Z,14.60
2018-09-10T09:52:04.822Z,7.83
2018-09-10T09:54:32.893Z,11.03
2018-09-10T09:57:01.244Z,16.20
2018-09-10T09:59:29.310Z,15.80
2018-09-10T10:02:14.940Z,15.33
2018-09-10T10:04:43.692Z,5.77
2018-09-10T10:07:11.785Z,10.27
2018-09-10T10:09:39.866Z,5.13
2018-09-10T10:12:08.037Z,4.20
2018-09-10T10:14:36.043Z,3.77
2018-09-10T10:17:04.101Z,4.93
2018-09-10T10:19:32.182Z,2.57
2018-09-10T10:22:00.311Z,5.30
2018-09-10T10:24:28.353Z,4.10
2018-09-10T10:26:56.429Z,5.63
2018-09-10T10:29:24.530Z,5.43
2018-09-10T10:31:52.615Z,5.30
2018-09-10T10:34:20.704Z,7.13
2018-09-10T10:36:48.801Z,4.10
2018-09-10T10:39:16.888Z,8.13
2018-09-10T10:41:44.966Z,5.37
2018-09-10T10:44:13.309Z,4.87
2018-09-10T10:46:41.404Z,2.73
2018-09-10T10:49:09.463Z,9.23
2018-09-10T10:51:37.570Z,2.67
2018-09-10T10:54:05.648Z,5.43
2018-09-10T10:56:33.731Z,5.33
2018-09-10T10:59:01.810Z,6.53
2018-09-10T11:01:29.870Z,2.10
2018-09-10T11:03:57.965Z,1.83
2018-09-10T11:06:26.047Z,4.05
2018-09-10T11:08:56.107Z,2.67
2018-09-10T11:11:24.177Z,2.63
2018-09-10T11:13:52.921Z,2.33
2018-09-10T11:16:21.499Z,2.87
2018-09-10T11:18:49.807Z,4.13
2018-09-10T11:21:17.881Z,4.87
2018-09-10T11:23:45.947Z,1.97
2018-09-10T11:26:14.314Z,5.50
2018-09-10T11:28:42.876Z,6.93
2018-09-10T11:31:10.988Z,4.55
2018-09-10T11:33:39.073Z,6.00
2018-09-10T11:36:07.310Z,7.63
2018-09-10T11:38:35.387Z,4.53
2018-09-10T11:41:03.687Z,4.73
2018-09-10T11:43:32.054Z,6.67
2018-09-10T11:46:00.113Z,6.97
2018-09-10T11:48:28.194Z,5.93
2018-09-10T11:50:56.276Z,10.47
2018-09-10T11:53:24.364Z,4.23
2018-09-10T11:55:52.437Z,5.20
2018-09-10T11:58:20.535Z,2.73
2018-09-10T12:00:48.649Z,7.03
2018-09-10T12:03:16.722Z,5.07
2018-09-10T12:05:45.489Z,1.83
2018-09-10T12:08:13.561Z,4.30
2018-09-10T12:10:41.662Z,3.73
2018-09-10T12:13:09.729Z,4.53
2018-09-10T12:15:37.834Z,3.93
2018-09-10T12:18:05.913Z,1.93
2018-09-10T12:20:33.989Z,2.20
2018-09-10T12:23:02.078Z,5.42
2018-09-10T12:25:30.145Z,2.98
2018-09-10T12:27:58.256Z,4.20
2018-09-10T12:30:26.321Z,6.37
2018-09-10T12:32:54.397Z,2.67
2018-09-10T12:35:22.741Z,4.80
2018-09-10T12:37:50.811Z,3.10
2018-09-10T12:40:18.940Z,4.27
2018-09-10T12:42:47.705Z,4.07
2018-09-10T12:45:16.052Z,3.17
2018-09-10T12:47:44.406Z,2.77
2018-09-10T12:50:12.480Z,2.57
2018-09-10T12:52:42.421Z,2.80
2018-09-10T12:55:10.730Z,8.83
2018-09-10T12:57:38.827Z,4.30
2018-09-10T13:00:07.144Z,2.93
2018-09-10T13:02:35.228Z,6.57
2018-09-10T13:05:03.473Z,4.63
2018-09-10T13:07:31.846Z,5.23
2018-09-10T13:09:59.926Z,6.00
2018-09-10T13:12:29.847Z,3.67
2018-09-10T13:14:57.943Z,8.77
2018-09-10T13:17:26.022Z,2.67
2018-09-10T13:19:54.126Z,3.40
2018-09-10T13:22:22.503Z,3.00
2018-09-10T13:24:50.564Z,5.47
2018-09-10T13:27:18.661Z,7.28
2018-09-10T13:29:46.762Z,11.93
2018-09-10T13:32:14.887Z,10.68
2018-09-10T13:34:42.972Z,10.53
2018-09-10T13:37:11.109Z,7.27
2018-09-10T13:39:39.202Z,6.40
2018-09-10T13:42:07.311Z,10.23
2018-09-10T13:44:35.410Z,12.37
2018-09-10T13:47:03.506Z,5.20
2018-09-10T13:49:31.849Z,6.90
2018-09-10T13:51:59.917Z,5.30
2018-09-10T13:54:28.018Z,6.70
2018-09-10T13:56:56.157Z,2.77
2018-09-10T13:59:24.283Z,4.87
2018-09-10T14:01:52.365Z,3.53
2018-09-10T14:04:20.448Z,3.50
2018-09-10T14:06:48.568Z,8.00
2018-09-10T14:09:16.639Z,4.77
2018-09-10T14:11:44.729Z,5.80
2018-09-10T14:14:12.849Z,5.27
2018-09-10T14:16:41.157Z,11.63
2018-09-10T14:19:09.299Z,8.60
2018-09-10T14:21:37.409Z,3.67
2018-09-10T14:24:05.484Z,3.23
2018-09-10T14:26:33.636Z,2.97
2018-09-10T14:29:01.845Z,2.57
2018-09-10T14:31:29.855Z,3.73
2018-09-10T14:33:57.954Z,2.37
2018-09-10T14:36:26.044Z,5.67
2018-09-10T14:38:54.111Z,2.30
2018-09-10T14:41:22.198Z,2.67
2018-09-10T14:43:50.273Z,3.07
2018-09-10T14:46:18.363Z,3.60
2018-09-10T14:48:46.426Z,2.13
2018-09-10T14:51:14.532Z,2.00
2018-09-10T14:53:42.607Z,2.83
2018-09-10T14:56:10.708Z,2.43
2018-09-10T14:58:38.785Z,2.73
2018-09-10T15:01:06.892Z,2.40
2018-09-10T15:03:34.978Z,3.07
2018-09-10T15:06:03.067Z,1.83
2018-09-10T15:08:31.152Z,1.80
2018-09-10T15:11:00.214Z,4.47
2018-09-10T15:13:28.302Z,2.33
2018-09-10T15:15:56.368Z,3.53
2018-09-10T15:18:24.502Z,2.00
2018-09-10T15:20:52.587Z,1.53
2018-09-10T15:23:20.670Z,2.07
2018-09-10T15:25:48.766Z,2.50
2018-09-10T15:28:16.844Z,2.20
2018-09-10T15:30:44.931Z,1.43
2018-09-10T15:33:13.001Z,2.23
2018-09-10T15:35:41.309Z,3.47
2018-09-10T15:38:09.403Z,1.63
2018-09-10T15:40:37.545Z,2.80
2018-09-10T15:43:05.604Z,3.70
2018-09-10T15:45:33.685Z,4.83
2018-09-10T15:48:01.814Z,4.83
2018-09-10T15:50:29.878Z,2.13
2018-09-10T16:02:01.136Z,3.13
2018-09-10T16:10:27.260Z,5.87
2018-09-10T16:15:56.168Z,2.73
2018-09-10T16:18:24.254Z,3.07
2018-09-10T16:20:52.361Z,3.73
2018-09-10T16:23:20.705Z,2.50
2018-09-10T16:25:48.775Z,5.70
2018-09-10T16:28:16.877Z,1.40
2018-09-10T16:30:45.028Z,2.37
2018-09-10T16:33:13.120Z,2.57
2018-09-10T16:35:41.547Z,2.63
2018-09-10T16:38:09.639Z,4.10
2018-09-10T16:40:37.711Z,2.60
2018-09-10T16:43:05.786Z,3.53
2018-09-10T16:45:33.884Z,2.13
2018-09-10T16:48:01.952Z,4.43
2018-09-10T16:50:30.066Z,2.50
2018-09-10T16:52:58.404Z,3.67
2018-09-10T16:55:27.259Z,2.10
2018-09-10T16:57:55.393Z,2.73
2018-09-10T17:00:23.488Z,2.43
2018-09-10T17:02:51.595Z,2.30
2018-09-10T17:05:19.698Z,3.77
2018-09-10T17:07:47.822Z,2.20
2018-09-10T17:10:16.020Z,4.23
2018-09-10T17:12:44.166Z,6.00
2018-09-10T17:15:12.231Z,2.23
2018-09-10T17:17:40.319Z,1.83
2018-09-10T17:20:11.184Z,2.67
2018-09-10T17:22:39.350Z,2.43
2018-09-10T17:25:07.373Z,3.77
2018-09-10T17:27:35.435Z,3.07
2018-09-10T17:30:03.537Z,2.83
2018-09-10T17:32:31.639Z,4.67
2018-09-10T17:34:59.707Z,5.27
2018-09-10T17:37:27.801Z,4.10
2018-09-10T17:39:55.882Z,3.60
2018-09-10T17:42:23.981Z,2.47
2018-09-10T17:44:53.052Z,1.80
2018-09-10T17:47:22.062Z,3.60
2018-09-10T17:49:50.192Z,2.07
2018-09-10T17:52:18.275Z,3.23
2018-09-10T17:54:46.365Z,2.67
2018-09-10T17:57:14.446Z,2.27
2018-09-10T17:59:42.563Z,3.83
2018-09-10T18:02:10.657Z,5.33
2018-09-10T18:04:38.957Z,4.13
2018-09-10T18:07:07.158Z,6.03
2018-09-10T18:09:35.270Z,2.50
2018-09-10T18:12:03.372Z,3.57
2018-09-10T18:14:31.450Z,2.13
2018-09-10T18:16:59.536Z,4.50
2018-09-10T18:19:27.612Z,3.47
2018-09-10T18:21:55.744Z,2.50
2018-09-10T18:24:23.845Z,5.23
2018-09-10T18:26:51.944Z,4.00
2018-09-10T18:29:20.027Z,2.60
2018-09-10T18:31:49.410Z,3.93
2018-09-10T18:34:17.835Z,3.40
2018-09-10T18:36:46.297Z,4.03
2018-09-10T18:39:14.379Z,4.78
2018-09-10T18:41:42.476Z,2.60
2018-09-10T18:44:10.572Z,1.97
2018-09-10T18:46:38.880Z,2.67
2018-09-10T18:49:07.022Z,3.37
2018-09-10T18:51:35.113Z,3.70
2018-09-10T18:54:03.218Z,1.87
2018-09-10T18:56:32.673Z,3.17
2018-09-10T18:59:00.744Z,3.03
2018-09-10T19:01:28.900Z,3.73
2018-09-10T19:03:57.345Z,1.67
2018-09-10T19:06:25.428Z,2.67
2018-09-10T19:08:54.372Z,3.93
2018-09-10T19:11:22.451Z,2.13
2018-09-10T19:13:50.748Z,3.37
2018-09-10T19:16:18.847Z,3.03
2018-09-10T19:18:46.911Z,2.50
2018-09-10T19:21:15.012Z,2.13
2018-09-10T19:23:43.094Z,4.17
2018-09-10T19:26:11.433Z,3.50
2018-09-10T19:28:39.505Z,3.13
2018-09-10T19:31:07.831Z,6.63
2018-09-10T19:33:36.169Z,2.10
2018-09-10T19:36:04.281Z,3.57
2018-09-10T19:38:32.367Z,5.33
2018-09-10T19:41:00.440Z,4.03
2018-09-10T19:43:29.562Z,6.00
2018-09-10T19:45:57.640Z,3.50
2018-09-10T19:48:25.803Z,4.67
2018-09-10T19:50:53.950Z,9.93
2018-09-10T19:53:22.012Z,8.50
2018-09-10T19:55:50.131Z,7.27
2018-09-10T19:58:18.344Z,6.33
2018-09-10T20:00:46.457Z,8.20
2018-09-10T20:03:14.526Z,9.30
2018-09-10T20:05:42.623Z,11.33
2018-09-10T20:08:10.797Z,9.53
2018-09-10T20:10:38.922Z,10.33
2018-09-10T20:13:07.005Z,5.27
2018-09-10T20:15:35.121Z,6.60
2018-09-10T20:18:03.225Z,6.50
2018-09-10T20:20:31.319Z,6.90
2018-09-10T20:22:59.402Z,8.40
2018-09-10T20:25:27.505Z,3.57
2018-09-10T20:27:56.684Z,12.20
2018-09-10T20:30:24.785Z,10.60
2018-09-10T20:32:52.885Z,8.10
2018-09-10T20:35:20.965Z,7.43
2018-09-10T20:37:49.066Z,8.17
2018-09-10T20:40:17.322Z,14.40
2018-09-10T20:42:45.424Z,11.43
2018-09-10T20:45:13.627Z,12.90
2018-09-10T20:47:41.733Z,13.23
2018-09-10T20:50:09.856Z,14.57
2018-09-10T20:52:37.933Z,9.90
2018-09-10T20:55:06.053Z,9.70
2018-09-10T20:57:34.154Z,8.63
2018-09-10T21:00:02.254Z,7.90
2018-09-10T21:02:30.419Z,7.27
2018-09-10T21:04:58.528Z,8.97
2018-09-10T21:07:27.805Z,13.90
2018-09-10T21:09:55.924Z,12.40
2018-09-10T21:12:24.090Z,9.60
2018-09-10T21:14:52.165Z,11.57
2018-09-10T21:17:20.300Z,11.63
2018-09-10T21:19:48.388Z,5.50
2018-09-10T21:22:16.464Z,11.43
2018-09-10T21:24:44.620Z,10.27
2018-09-10T21:27:12.693Z,7.67
2018-09-10T21:29:40.779Z,12.67
2018-09-10T21:32:08.916Z,10.23
2018-09-10T21:34:36.985Z,7.00
2018-09-10T21:37:05.402Z,4.37
2018-09-10T21:39:33.499Z,8.57
2018-09-10T21:42:01.569Z,6.80
2018-09-10T21:44:29.650Z,5.00
2018-09-10T21:46:57.775Z,6.47
2018-09-10T21:49:25.827Z,7.33
2018-09-10T21:51:54.046Z,7.00
2018-09-10T21:54:22.197Z,6.67
2018-09-10T21:56:50.448Z,8.80
2018-09-10T21:59:18.543Z,9.97
2018-09-10T22:01:46.631Z,7.00
2018-09-10T22:04:14.709Z,8.27
2018-09-10T22:06:42.786Z,5.37
2018-09-10T22:09:10.921Z,4.80
2018-09-10T22:11:56.469Z,7.83
2018-09-10T22:14:24.676Z,5.57
2018-09-10T22:16:52.750Z,8.93
2018-09-10T22:19:20.830Z,5.30
2018-09-10T22:21:48.900Z,8.13
2018-09-10T22:24:17.028Z,11.07
2018-09-10T22:26:45.190Z,4.23
2018-09-10T22:29:13.601Z,5.40
2018-09-10T22:31:41.825Z,7.33
2018-09-10T22:34:09.888Z,5.97
2018-09-10T22:36:38.182Z,5.70
2018-09-10T22:39:08.597Z,4.17
2018-09-10T22:41:36.737Z,3.97
2018-09-10T22:44:04.834Z,5.03
2018-09-10T22:46:33.479Z,6.03
2018-09-10T22:49:02.960Z,6.37
2018-09-10T22:51:31.168Z,3.10
2018-09-10T22:53:59.323Z,8.70
2018-09-10T22:56:27.402Z,6.23
2018-09-10T22:58:55.505Z,4.80
2018-09-10T23:01:23.622Z,3.93
2018-09-10T23:03:51.857Z,5.67
2018-09-10T23:06:19.975Z,4.93
2018-09-10T23:08:48.356Z,6.47
2018-09-10T23:11:16.918Z,4.27
2018-09-10T23:13:44.990Z,4.20
2018-09-10T23:16:13.106Z,6.47
2018-09-10T23:18:41.169Z,5.37
2018-09-10T23:21:09.240Z,6.17
2018-09-10T23:23:37.321Z,6.90
2018-09-10T23:26:05.411Z,17.07
2018-09-10T23:28:33.488Z,6.73
2018-09-10T23:31:01.562Z,8.43
2018-09-10T23:33:29.664Z,9.07
2018-09-10T23:35:57.739Z,12.03
2018-09-10T23:38:25.809Z,8.37
2018-09-10T23:40:53.907Z,9.33
2018-09-10T23:43:21.982Z,14.20
2018-09-10T23:45:50.059Z,8.43
2018-09-10T23:48:18.129Z,10.20
2018-09-10T23:50:46.219Z,13.30
2018-09-10T23:53:14.306Z,9.93
2018-09-10T23:55:42.384Z,11.27
2018-09-10T23:58:10.455Z,10.37
